createdAt,value
2022-12-18T00:50:08.999Z,37.00
2022-12-18T00:51:17.495Z,42.60
2022-12-18T00:52:58.564Z,39.06
2022-12-18T00:53:44.763Z,39.63
2022-12-18T01:02:27.107Z,37.69
2022-12-18T01:03:30.949Z,37.94
2022-12-18T02:01:27.897Z,44.13
2022-12-18T02:23:38.057Z,42.56
2022-12-18T02:24:47.592Z,42.13
2022-12-18T02:26:14.551Z,44.19
2022-12-18T02:28:11.202Z,43.60
2022-12-18T02:29:22.774Z,36.38
2022-12-18T02:30:59.464Z,38.00
2022-12-18T03:02:58.734Z,42.69
2022-12-18T06:58:16.728Z,32.19
2022-12-18T07:49:48.357Z,38.75
2022-12-18T07:54:06.236Z,31.69
2022-12-18T07:55:14.514Z,29.31
2022-12-18T07:56:27.162Z,28.87
2022-12-18T07:57:49.102Z,29.60
2022-12-18T07:58:30.674Z,30.25
2022-12-18T07:59:38.816Z,32.93
2022-12-18T08:00:41.924Z,27.50
2022-12-18T08:01:46.085Z,27.80
2022-12-18T08:02:54.161Z,30.25
2022-12-18T08:04:02.098Z,27.87
2022-12-18T09:03:45.145Z,27.75
2022-12-18T09:04:55.393Z,24.69
2022-12-18T09:05:58.753Z,25.12
2022-12-18T09:07:10.448Z,23.12
2022-12-18T09:08:19.997Z,24.81
2022-12-18T09:24:30.417Z,28.19
2022-12-18T10:30:30.795Z,25.12
2022-12-18T10:51:08.667Z,27.94
2022-12-18T10:51:43.229Z,30.56
2022-12-18T11:16:14.101Z,26.94
2022-12-18T11:26:37.544Z,23.19
2022-12-18T11:27:44.349Z,28.87
2022-12-18T11:29:12.142Z,24.44
2022-12-18T11:30:25.242Z,22.50
2022-12-18T11:31:32.288Z,25.25
2022-12-18T11:32:41.697Z,24.63
2022-12-18T11:34:27.523Z,23.25
2022-12-18T11:35:32.734Z,23.06
2022-12-18T11:55:15.268Z,20.06
2022-12-18T11:56:42.737Z,22.62
2022-12-18T11:57:58.561Z,17.67
2022-12-18T12:15:14.565Z,27.67
2022-12-18T12:28:54.784Z,23.94
2022-12-18T12:30:06.229Z,24.12
2022-12-18T12:31:18.048Z,20.31
2022-12-18T12:32:27.930Z,22.75
2022-12-18T12:33:50.268Z,23.75
2022-12-18T12:35:09.413Z,30.69
2022-12-18T12:36:36.088Z,18.44
2022-12-18T12:38:29.969Z,19.12
2022-12-18T12:40:52.103Z,17.56
2022-12-18T12:41:40.677Z,28.93
2022-12-18T12:42:48.120Z,21.50
2022-12-18T12:43:54.314Z,22.31
2022-12-18T12:45:03.056Z,21.50
2022-12-18T12:46:13.189Z,23.12
2022-12-18T12:47:53.649Z,21.69
2022-12-18T12:48:49.737Z,22.31
2022-12-18T12:51:21.672Z,13.88
2022-12-18T12:52:28.437Z,20.25
2022-12-18T13:50:02.235Z,17.94
2022-12-18T13:51:12.139Z,25.75
2022-12-18T13:52:20.711Z,23.06
2022-12-18T13:53:28.656Z,27.19
2022-12-18T13:54:39.826Z,23.87
2022-12-18T13:55:48.123Z,20.93
2022-12-18T13:56:58.822Z,20.37
2022-12-18T13:59:23.248Z,22.07
2022-12-18T14:00:54.547Z,19.25
2022-12-18T14:02:04.365Z,23.44
2022-12-18T14:03:24.864Z,26.50
2022-12-18T14:04:33.450Z,21.25
2022-12-18T14:05:43.713Z,19.56
2022-12-18T14:06:54.494Z,25.00
2022-12-18T14:22:53.578Z,27.25
2022-12-18T14:24:19.782Z,15.81
2022-12-18T14:25:29.166Z,24.60
2022-12-18T14:26:34.300Z,17.87
2022-12-18T14:27:50.794Z,26.31
2022-12-18T14:29:02.017Z,25.44
2022-12-18T14:30:15.592Z,26.19
2022-12-18T14:31:30.712Z,25.20
2022-12-18T14:32:34.668Z,15.19
2022-12-18T14:33:41.980Z,23.50
2022-12-18T14:34:49.031Z,18.69
2022-12-18T14:36:06.503Z,14.56
2022-12-18T14:37:13.853Z,21.06
2022-12-18T14:38:33.014Z,18.19
2022-12-18T14:39:37.093Z,22.47
2022-12-18T14:40:43.364Z,25.37
2022-12-18T14:41:50.832Z,25.00
2022-12-18T14:43:00.383Z,27.00
2022-12-18T14:44:06.804Z,30.88
2022-12-18T14:45:41.831Z,20.87
2022-12-18T14:46:48.969Z,24.80
2022-12-18T14:47:58.034Z,22.56
2022-12-18T14:49:02.110Z,22.87
2022-12-18T14:50:12.796Z,21.81
2022-12-18T14:51:22.285Z,16.69
2022-12-18T14:52:29.315Z,20.25
2022-12-18T14:53:52.183Z,23.56
2022-12-18T14:54:51.498Z,21.37
2022-12-18T14:55:55.694Z,19.07
2022-12-18T14:57:08.704Z,22.00
2022-12-18T14:58:19.191Z,19.94
2022-12-18T14:59:27.706Z,21.06
2022-12-18T15:00:32.507Z,19.19
2022-12-18T15:01:45.335Z,20.31
2022-12-18T15:03:00.945Z,16.94
2022-12-18T15:04:06.943Z,17.06
2022-12-18T15:05:20.979Z,22.87
2022-12-18T15:06:30.880Z,19.50
2022-12-18T15:07:53.636Z,16.81
2022-12-18T15:10:44.844Z,21.94
2022-12-18T15:11:32.124Z,18.50
2022-12-18T15:12:39.087Z,19.62
2022-12-18T15:14:46.885Z,21.00
2022-12-18T15:14:50.606Z,17.19
2022-12-18T15:16:05.901Z,18.44
2022-12-18T15:18:55.332Z,10.06
2022-12-18T15:20:04.677Z,21.13
2022-12-18T15:21:14.364Z,17.12
2022-12-18T15:22:22.481Z,19.44
2022-12-18T15:23:29.259Z,17.44
2022-12-18T15:24:35.049Z,14.06
2022-12-18T15:25:40.594Z,15.88
2022-12-18T15:26:47.643Z,18.75
2022-12-18T15:28:04.140Z,16.25
2022-12-18T15:29:15.881Z,17.12
2022-12-18T15:30:22.892Z,23.81
2022-12-18T15:31:35.688Z,19.25
2022-12-18T15:32:45.330Z,24.50
2022-12-18T15:33:59.321Z,26.25
2022-12-18T15:35:14.289Z,23.81
2022-12-18T15:36:26.157Z,30.94
2022-12-18T15:37:32.952Z,22.87
2022-12-18T15:39:47.793Z,22.87
2022-12-18T15:40:51.862Z,21.25
2022-12-18T15:40:53.456Z,17.69
2022-12-18T15:43:25.204Z,25.37
2022-12-18T15:44:30.843Z,27.00
2022-12-18T15:45:37.695Z,18.75
2022-12-18T15:46:43.378Z,26.81
2022-12-18T15:47:50.583Z,20.37
2022-12-18T15:49:04.067Z,20.00
2022-12-18T15:50:11.660Z,16.19
2022-12-18T15:51:23.642Z,20.69
2022-12-18T15:52:36.226Z,19.44
2022-12-18T15:55:22.650Z,23.25
2022-12-18T15:57:43.600Z,22.06
2022-12-18T16:03:11.605Z,27.00
2022-12-18T16:34:21.573Z,20.12
2022-12-18T17:05:52.826Z,22.50
2022-12-18T18:06:43.985Z,9.25
2022-12-18T19:53:47.520Z,39.69
2022-12-18T19:54:57.203Z,34.94
2022-12-18T19:56:12.236Z,42.00
2022-12-18T19:57:17.702Z,40.12
2022-12-18T19:58:24.205Z,35.53
2022-12-18T19:59:31.808Z,33.47
2022-12-18T20:00:38.040Z,32.19
2022-12-18T20:01:45.199Z,28.69
2022-12-18T20:02:50.464Z,36.63
2022-12-18T20:03:57.627Z,31.75
2022-12-18T20:07:53.903Z,31.13
2022-12-18T20:09:09.652Z,28.53
2022-12-18T20:11:49.787Z,29.63
2022-12-18T20:15:34.354Z,28.56
2022-12-18T20:17:35.219Z,24.37
2022-12-18T20:46:12.301Z,30.13
2022-12-18T21:16:26.572Z,28.00
2022-12-18T21:17:30.746Z,24.69
2022-12-18T21:18:41.730Z,29.37
2022-12-18T21:20:03.229Z,26.06
2022-12-18T21:21:03.383Z,29.19
2022-12-18T21:48:39.321Z,28.13
2022-12-18T21:51:07.562Z,32.81
2022-12-18T21:52:31.655Z,32.63
2022-12-18T21:54:17.070Z,35.25
2022-12-18T21:54:53.911Z,28.73
2022-12-18T22:50:18.806Z,26.06
2022-12-18T22:51:24.260Z,23.62
2022-12-18T22:52:29.890Z,18.44
2022-12-18T22:53:35.173Z,27.75
2022-12-18T22:54:39.078Z,26.47
2022-12-18T22:55:43.069Z,25.94
2022-12-18T22:56:51.205Z,27.87
2022-12-18T22:57:55.127Z,24.87
2022-12-18T22:59:00.744Z,27.93
2022-12-18T23:00:10.678Z,29.40
2022-12-18T23:32:55.820Z,27.25
2022-12-18T23:58:21.217Z,25.06
2022-12-18T23:59:28.071Z,27.56
